createdAt,value
2022-08-11T00:01:25.741Z,98963.38
2022-08-11T00:04:17.117Z,98968.94
2022-08-11T00:07:08.839Z,98967.69
2022-08-11T00:09:58.027Z,98964.16
2022-08-11T00:12:53.180Z,98963.44
2022-08-11T00:15:45.631Z,98963.19
2022-08-11T00:18:42.287Z,98960.16
2022-08-11T00:22:02.982Z,98966.22
2022-08-11T00:24:53.978Z,98969.19
2022-08-11T00:27:45.097Z,98971.97
2022-08-11T00:30:40.781Z,98970.22
2022-08-11T00:33:41.170Z,98962.06
2022-08-11T00:36:47.465Z,98966.63
2022-08-11T00:39:46.896Z,98957.78
2022-08-11T00:43:02.030Z,98966.88
2022-08-11T00:46:17.503Z,98964.41
2022-08-11T00:49:17.463Z,98956.81
2022-08-11T00:52:20.750Z,98959.13
2022-08-11T00:55:40.679Z,98959.41
2022-08-11T00:59:00.387Z,98962.91
2022-08-11T01:01:59.262Z,98956.56
2022-08-11T01:05:08.056Z,98957.56
2022-08-11T01:08:27.434Z,98951.47
2022-08-11T01:11:55.339Z,98948.66
2022-08-11T01:15:23.963Z,98951.75
2022-08-11T01:18:30.678Z,98953.84
2022-08-11T01:22:16.365Z,98955.34
2022-08-11T01:25:57.081Z,98958.59
2022-08-11T01:29:14.724Z,98956.03
2022-08-11T01:32:45.150Z,98954.75
2022-08-11T01:35:56.817Z,98956.59
2022-08-11T01:39:29.580Z,98955.09
2022-08-11T01:43:13.540Z,98952.50
2022-08-11T01:46:08.105Z,98953.56
2022-08-11T01:49:29.010Z,98954.59
2022-08-11T01:52:33.311Z,98962.44
2022-08-11T01:55:29.557Z,98953.28
2022-08-11T01:58:30.973Z,98962.69
2022-08-11T02:01:46.899Z,98957.59
2022-08-11T02:04:37.813Z,98952.06
2022-08-11T02:07:37.052Z,98952.78
2022-08-11T02:10:50.337Z,98946.22
2022-08-11T02:13:48.774Z,98944.38
2022-08-11T02:16:53.357Z,98946.66
2022-08-11T02:20:08.321Z,98947.34
2022-08-11T02:23:23.899Z,98947.34
2022-08-11T02:26:36.894Z,98947.66
2022-08-11T02:29:33.491Z,98945.09
2022-08-11T02:32:46.491Z,98944.13
2022-08-11T02:35:45.919Z,98948.69
2022-08-11T02:38:43.493Z,98944.38
2022-08-11T02:42:03.251Z,98950.97
2022-08-11T02:45:07.076Z,98943.16
2022-08-11T02:48:22.606Z,98944.09
2022-08-11T02:51:22.297Z,98950.72
2022-08-11T02:54:22.000Z,98936.03
2022-08-11T02:57:17.747Z,98945.94
2022-08-11T03:00:09.298Z,98950.53
2022-08-11T03:03:13.636Z,98955.09
2022-08-11T03:06:13.712Z,98953.06
2022-08-11T03:09:07.941Z,98950.53
2022-08-11T03:12:23.372Z,98955.09
2022-08-11T03:15:33.174Z,98951.50
2022-08-11T03:18:35.958Z,98960.63
2022-08-11T03:21:52.274Z,98951.25
2022-08-11T03:24:50.538Z,98956.03
2022-08-11T03:27:51.842Z,98956.38
2022-08-11T03:30:48.316Z,98961.66
2022-08-11T03:34:05.987Z,98956.13
2022-08-11T03:37:16.426Z,98964.78
2022-08-11T03:40:17.537Z,98960.31
2022-08-11T03:43:20.661Z,98954.53
2022-08-11T03:46:15.937Z,98955.31
2022-08-11T03:49:15.925Z,98951.53
2022-08-11T03:52:14.434Z,98956.84
2022-08-11T03:55:12.109Z,98956.31
2022-08-11T03:58:41.736Z,98954.00
2022-08-11T04:01:57.870Z,98948.25
2022-08-11T04:05:28.929Z,98946.22
2022-08-11T04:08:46.532Z,98947.19
2022-08-11T04:12:05.211Z,98944.19
2022-08-11T04:15:56.343Z,98952.78
2022-08-11T04:19:22.359Z,98944.88
2022-08-11T04:22:40.157Z,98946.44
2022-08-11T04:25:58.067Z,98952.28
2022-08-11T04:29:02.185Z,98952.50
2022-08-11T04:32:09.510Z,98947.91
2022-08-11T04:35:24.040Z,98956.78
2022-08-11T04:38:47.850Z,98958.72
2022-08-11T04:42:31.804Z,98970.56
2022-08-11T04:45:51.881Z,98974.34
2022-08-11T04:49:33.867Z,98966.88
2022-08-11T04:53:14.632Z,98970.72
2022-08-11T04:56:33.506Z,98969.84
2022-08-11T04:59:59.415Z,98972.69
2022-08-11T05:03:16.559Z,98976.88
2022-08-11T05:06:33.453Z,98978.78
2022-08-11T05:09:56.254Z,98975.78
2022-08-11T05:12:50.348Z,98972.75
2022-08-11T05:16:08.156Z,98978.97
2022-08-11T05:19:16.321Z,98979.03
2022-08-11T05:22:27.801Z,98977.84
2022-08-11T05:26:47.473Z,98974.03
2022-08-11T05:29:19.968Z,98971.28
2022-08-11T05:32:32.348Z,98980.81
2022-08-11T05:36:00.756Z,98991.72
2022-08-11T05:38:55.524Z,98987.53
2022-08-11T05:42:03.175Z,98989.38
2022-08-11T05:45:15.591Z,98996.00
2022-08-11T05:48:22.727Z,99004.25
2022-08-11T05:51:30.447Z,98985.88
2022-08-11T05:54:37.297Z,98992.84
2022-08-11T05:57:50.452Z,98999.88
2022-08-11T06:00:45.828Z,98998.38
2022-08-11T06:03:58.395Z,98999.84
2022-08-11T06:06:52.737Z,98999.16
2022-08-11T06:09:50.766Z,98986.56
2022-08-11T06:12:41.587Z,98998.53
2022-08-11T06:15:33.114Z,99004.19
2022-08-11T06:18:22.350Z,99009.50
2022-08-11T06:21:12.436Z,99005.00
2022-08-11T06:24:01.540Z,99003.94
2022-08-11T06:30:13.490Z,98999.66
2022-08-11T06:33:04.728Z,98998.13
2022-08-11T06:36:03.837Z,99002.16
2022-08-11T06:39:03.704Z,98994.69
2022-08-11T06:41:58.816Z,98998.50
2022-08-11T06:45:08.549Z,98997.59
2022-08-11T06:48:01.008Z,98998.69
2022-08-11T06:51:10.922Z,98996.38
2022-08-11T06:54:04.449Z,98989.78
2022-08-11T06:57:30.718Z,98994.06
2022-08-11T07:00:30.127Z,98998.94
2022-08-11T07:03:23.427Z,98991.22
2022-08-11T07:06:25.434Z,99001.28
2022-08-11T07:09:58.273Z,98992.97
2022-08-11T07:13:07.923Z,98995.41
2022-08-11T07:16:12.769Z,98995.06
2022-08-11T07:19:22.708Z,98985.75
2022-08-11T07:22:32.678Z,98986.16
2022-08-11T07:25:43.359Z,98986.34
2022-08-11T07:28:52.190Z,98985.81
2022-08-11T07:31:45.003Z,98979.22
2022-08-11T07:34:36.844Z,98978.13
2022-08-11T07:37:27.356Z,98980.44
2022-08-11T07:40:16.641Z,98974.25
2022-08-11T07:43:07.165Z,98978.94
2022-08-11T07:46:22.803Z,98977.59
2022-08-11T07:49:30.560Z,98979.28
2022-08-11T07:52:28.649Z,98970.34
2022-08-11T07:55:19.674Z,98970.22
2022-08-11T07:58:27.910Z,98967.41
2022-08-11T08:01:40.289Z,98967.06
2022-08-11T08:04:48.061Z,98970.91
2022-08-11T08:07:56.505Z,98971.31
2022-08-11T08:11:03.327Z,98965.94
2022-08-11T08:14:09.449Z,98972.69
2022-08-11T08:17:16.639Z,98974.06
2022-08-11T08:20:10.692Z,98966.88
2022-08-11T08:23:03.386Z,98964.63
2022-08-11T08:25:53.524Z,98968.75
2022-08-11T08:28:42.133Z,98960.88
2022-08-11T08:31:29.562Z,98963.66
2022-08-11T08:34:18.858Z,98964.06
2022-08-11T08:37:16.042Z,98957.09
2022-08-11T08:40:17.815Z,98954.47
2022-08-11T08:43:10.826Z,98955.03
2022-08-11T08:46:00.229Z,98953.31
2022-08-11T08:48:49.898Z,98952.19
2022-08-11T08:52:01.180Z,98942.09
2022-08-11T08:54:58.325Z,98939.44
2022-08-11T08:57:49.600Z,98937.19
2022-08-11T09:00:42.322Z,98935.66
2022-08-11T09:04:07.020Z,98936.88
2022-08-11T09:06:43.164Z,98934.38
2022-08-11T09:09:33.083Z,98932.88
2022-08-11T09:12:38.064Z,98940.75
2022-08-11T09:15:28.426Z,98940.88
2022-08-11T09:18:19.474Z,98931.28
2022-08-11T09:21:08.547Z,98929.81
2022-08-11T09:24:24.859Z,98927.13
2022-08-11T09:27:15.637Z,98918.00
2022-08-11T09:30:06.651Z,98916.13
2022-08-11T09:33:00.625Z,98917.69
2022-08-11T09:35:50.893Z,98910.13
2022-08-11T09:38:57.152Z,98914.50
2022-08-11T09:42:01.617Z,98907.91
2022-08-11T09:44:53.428Z,98917.00
2022-08-11T09:47:45.094Z,98918.13
2022-08-11T09:50:34.262Z,98912.13
2022-08-11T09:53:35.192Z,98910.09
2022-08-11T09:56:44.599Z,98905.25
2022-08-11T09:59:33.338Z,98905.84
2022-08-11T10:02:27.057Z,98898.44
2022-08-11T10:05:36.825Z,98890.91
2022-08-11T10:08:29.790Z,98877.31
2022-08-11T10:11:23.080Z,98880.13
2022-08-11T10:14:34.348Z,98876.84
2022-08-11T10:17:24.833Z,98869.84
2022-08-11T10:20:13.765Z,98875.72
2022-08-11T10:23:21.766Z,98863.13
2022-08-11T10:26:28.444Z,98861.31
2022-08-11T10:29:44.446Z,98857.81
2022-08-11T10:32:58.887Z,98852.00
2022-08-11T10:35:49.209Z,98838.28
2022-08-11T10:38:39.501Z,98853.25
2022-08-11T10:42:08.330Z,98844.28
2022-08-11T10:44:58.985Z,98841.31
2022-08-11T10:47:49.605Z,98849.97
2022-08-11T10:50:56.190Z,98829.47
2022-08-11T10:54:06.883Z,98824.72
2022-08-11T10:57:18.012Z,98842.50
2022-08-11T11:00:08.296Z,98832.41
2022-08-11T11:03:07.139Z,98819.72
2022-08-11T11:06:29.494Z,98831.94
2022-08-11T11:09:23.506Z,98827.00
2022-08-11T11:12:32.199Z,98818.16
2022-08-11T11:15:40.462Z,98818.03
2022-08-11T11:18:33.668Z,98814.31
2022-08-11T11:21:22.849Z,98803.00
2022-08-11T11:24:20.230Z,98801.50
2022-08-11T11:27:21.343Z,98796.88
2022-08-11T11:30:12.030Z,98797.13
2022-08-11T11:33:05.677Z,98806.84
2022-08-11T11:36:10.391Z,98796.53
2022-08-11T11:38:59.144Z,98796.19
2022-08-11T11:41:48.089Z,98795.88
2022-08-11T11:44:39.350Z,98797.84
2022-08-11T11:47:28.304Z,98790.97
2022-08-11T11:50:19.422Z,98783.56
2022-08-11T11:53:12.594Z,98774.47
2022-08-11T11:56:03.347Z,98778.59
2022-08-11T11:59:09.378Z,98774.81
2022-08-11T12:02:11.957Z,98773.16
2022-08-11T12:05:02.133Z,98781.72
2022-08-11T12:08:12.484Z,98777.34
2022-08-11T12:11:21.676Z,98770.28
2022-08-11T12:14:12.526Z,98771.06
2022-08-11T12:17:02.267Z,98766.03
2022-08-11T12:19:53.347Z,98760.69
2022-08-11T12:23:03.294Z,98759.00
2022-08-11T12:26:26.319Z,98764.16
2022-08-11T12:29:16.873Z,98778.31
2022-08-11T12:32:09.547Z,98800.03
2022-08-11T12:34:59.830Z,98781.97
2022-08-11T12:38:02.659Z,98781.28
2022-08-11T12:41:15.086Z,98817.34
2022-08-11T12:44:37.291Z,98819.25
2022-08-11T12:48:09.598Z,98830.13
2022-08-11T12:51:20.641Z,98840.78
2022-08-11T12:54:13.403Z,98838.28
2022-08-11T12:57:36.238Z,98846.75
2022-08-11T13:00:47.028Z,98846.22
2022-08-11T13:03:56.969Z,98859.63
2022-08-11T13:06:47.300Z,98859.88
2022-08-11T13:09:35.954Z,98849.91
2022-08-11T13:12:51.169Z,98850.47
2022-08-11T13:15:39.960Z,98851.44
2022-08-11T13:18:29.181Z,98857.38
2022-08-11T13:21:20.731Z,98849.81
2022-08-11T13:24:10.945Z,98844.09
2022-08-11T13:27:00.126Z,98854.59
2022-08-11T13:29:52.602Z,98847.34
2022-08-11T13:32:43.006Z,98848.16
2022-08-11T13:35:34.766Z,98841.97
2022-08-11T13:38:25.759Z,98851.22
2022-08-11T13:41:33.518Z,98866.03
2022-08-11T13:44:25.892Z,98861.28
2022-08-11T13:47:15.623Z,98859.34
2022-08-11T13:50:04.609Z,98857.28
2022-08-11T13:52:53.466Z,98849.59
2022-08-11T13:55:51.415Z,98843.66
2022-08-11T13:58:42.772Z,98850.16
2022-08-11T14:02:03.318Z,98846.97
2022-08-11T14:04:45.494Z,98839.06
2022-08-11T14:07:38.168Z,98838.06
2022-08-11T14:10:31.166Z,98834.78
2022-08-11T14:13:42.706Z,98841.25
2022-08-11T14:16:43.799Z,98828.69
2022-08-11T14:19:37.853Z,98832.75
2022-08-11T14:22:26.921Z,98826.38
2022-08-11T14:25:16.926Z,98821.34
2022-08-11T14:28:31.147Z,98804.28
2022-08-11T14:31:16.166Z,98812.44
2022-08-11T14:34:07.617Z,98809.59
2022-08-11T14:36:59.366Z,98809.81
2022-08-11T14:39:51.572Z,98807.25
2022-08-11T14:42:59.780Z,98810.53
2022-08-11T14:46:02.586Z,98806.75
2022-08-11T14:48:52.160Z,98804.00
2022-08-11T14:51:46.888Z,98794.78
2022-08-11T14:54:54.299Z,98789.63
2022-08-11T14:57:56.228Z,98782.34
2022-08-11T15:00:46.008Z,98789.75
2022-08-11T15:03:33.853Z,98782.91
2022-08-11T15:06:22.466Z,98790.28
2022-08-11T15:09:12.268Z,98787.28
2022-08-11T15:12:33.286Z,98786.53
2022-08-11T15:15:41.231Z,98783.75
2022-08-11T15:18:30.537Z,98789.59
2022-08-11T15:21:36.510Z,98797.19
2022-08-11T15:24:28.014Z,98800.59
2022-08-11T15:27:41.151Z,98795.47
2022-08-11T15:30:48.888Z,98784.94
2022-08-11T15:33:57.978Z,98790.50
2022-08-11T15:37:05.590Z,98787.03
2022-08-11T15:40:30.148Z,98785.16
2022-08-11T15:43:42.052Z,98782.56
2022-08-11T15:46:33.028Z,98786.16
2022-08-11T15:49:24.935Z,98792.81
2022-08-11T15:52:38.912Z,98799.38
2022-08-11T15:55:30.198Z,98798.66
2022-08-11T15:58:38.836Z,98786.69
2022-08-11T16:01:46.573Z,98787.88
2022-08-11T16:04:37.982Z,98774.72
2022-08-11T16:07:30.521Z,98779.75
2022-08-11T16:10:22.664Z,98774.84
2022-08-11T16:13:33.893Z,98767.78
2022-08-11T16:16:22.835Z,98781.06
2022-08-11T16:19:14.250Z,98764.78
2022-08-11T16:22:05.722Z,98767.59
2022-08-11T16:27:02.411Z,98767.09
2022-08-11T16:28:07.329Z,98776.94
2022-08-11T16:30:58.406Z,98767.44
2022-08-11T16:33:51.631Z,98775.03
2022-08-11T16:36:57.882Z,98774.81
2022-08-11T16:39:48.315Z,98772.41
2022-08-11T16:43:09.041Z,98769.69
2022-08-11T16:46:33.755Z,98775.78
2022-08-11T16:49:34.787Z,98769.50
2022-08-11T16:52:24.448Z,98763.75
2022-08-11T16:55:12.908Z,98775.66
2022-08-11T16:58:40.720Z,98773.03
2022-08-11T17:01:30.907Z,98773.97
2022-08-11T17:04:43.627Z,98761.94
2022-08-11T17:07:49.831Z,98756.22
2022-08-11T17:11:04.070Z,98747.22
2022-08-11T17:14:00.118Z,98752.06
2022-08-11T17:16:53.332Z,98767.63
2022-08-11T17:20:41.170Z,98761.72
2022-08-11T17:23:15.136Z,98774.28
2022-08-11T17:26:04.756Z,98773.69
2022-08-11T17:29:00.481Z,98773.34
2022-08-11T17:32:09.136Z,98769.19
2022-08-11T17:35:18.636Z,98765.06
2022-08-11T17:38:09.815Z,98761.63
2022-08-11T17:41:23.266Z,98766.13
2022-08-11T17:44:30.172Z,98764.63
2022-08-11T17:47:39.127Z,98777.34
2022-08-11T17:50:28.689Z,98790.19
2022-08-11T17:53:36.134Z,98794.34
2022-08-11T17:56:43.883Z,98798.44
2022-08-11T17:59:50.761Z,98796.38
2022-08-11T18:02:59.294Z,98795.94
2022-08-11T18:05:49.332Z,98793.34
2022-08-11T18:08:59.550Z,98793.88
2022-08-11T18:12:11.933Z,98797.22
2022-08-11T18:15:19.022Z,98797.47
2022-08-11T18:18:26.618Z,98793.41
2022-08-11T18:21:36.249Z,98791.66
2022-08-11T18:24:44.470Z,98803.97
2022-08-11T18:27:53.439Z,98793.88
2022-08-11T18:31:04.608Z,98801.13
2022-08-11T18:34:14.951Z,98801.16
2022-08-11T18:37:28.554Z,98792.81
2022-08-11T18:40:38.735Z,98786.97
2022-08-11T18:43:46.489Z,98786.16
2022-08-11T18:46:55.104Z,98788.47
2022-08-11T18:50:05.996Z,98784.75
2022-08-11T18:53:15.197Z,98799.56
2022-08-11T18:56:21.074Z,98803.41
2022-08-11T18:59:28.582Z,98804.22
2022-08-11T19:02:49.415Z,98812.25
2022-08-11T19:06:06.191Z,98789.66
2022-08-11T19:09:27.506Z,98804.31
2022-08-11T19:12:34.452Z,98807.47
2022-08-11T19:15:41.958Z,98804.81
2022-08-11T19:18:50.287Z,98809.47
2022-08-11T19:22:00.962Z,98804.09
2022-08-11T19:25:10.020Z,98806.06
2022-08-11T19:28:17.625Z,98804.31
2022-08-11T19:31:24.665Z,98794.53
2022-08-11T19:34:32.755Z,98797.50
2022-08-11T19:37:44.589Z,98789.63
2022-08-11T19:40:50.984Z,98786.91
2022-08-11T19:43:57.750Z,98787.66
2022-08-11T19:47:06.953Z,98779.91
2022-08-11T19:50:17.609Z,98778.53
2022-08-11T19:53:31.421Z,98781.31
2022-08-11T19:56:38.070Z,98780.91
2022-08-11T19:59:45.201Z,98785.91
2022-08-11T20:02:51.133Z,98788.00
2022-08-11T20:06:00.135Z,98781.47
2022-08-11T20:09:09.431Z,98776.50
2022-08-11T20:12:17.578Z,98777.88
2022-08-11T20:15:29.965Z,98773.09
2022-08-11T20:18:37.760Z,98782.22
2022-08-11T20:21:46.105Z,98792.41
2022-08-11T20:24:56.614Z,98780.19
2022-08-11T20:28:04.811Z,98776.47
2022-08-11T20:31:12.842Z,98775.88
2022-08-11T20:34:20.409Z,98777.56
2022-08-11T20:37:27.623Z,98781.34
2022-08-11T20:40:36.665Z,98780.19
2022-08-11T20:44:08.223Z,98779.44
2022-08-11T20:47:13.082Z,98784.38
2022-08-11T20:50:21.008Z,98782.59
2022-08-11T20:53:29.012Z,98791.00
2022-08-11T20:56:37.658Z,98789.72
2022-08-11T20:59:56.325Z,98796.25
2022-08-11T21:03:04.203Z,98790.16
2022-08-11T21:06:11.211Z,98792.16
2022-08-11T21:09:19.617Z,98796.19
2022-08-11T21:12:28.902Z,98788.63
2022-08-11T21:15:38.882Z,98797.97
2022-08-11T21:18:54.089Z,98804.09
2022-08-11T21:22:01.478Z,98806.88
2022-08-11T21:25:11.072Z,98807.94
2022-08-11T21:28:22.764Z,98805.59
2022-08-11T21:31:29.613Z,98807.66
2022-08-11T21:34:38.860Z,98805.16
2022-08-11T21:37:44.994Z,98802.81
2022-08-11T21:40:58.447Z,98803.03
2022-08-11T21:44:06.293Z,98808.91
2022-08-11T21:47:18.486Z,98811.22
2022-08-11T21:50:27.615Z,98813.50
2022-08-11T21:53:34.607Z,98806.38
2022-08-11T21:56:41.975Z,98813.72
2022-08-11T22:00:00.156Z,98824.88
2022-08-11T22:03:06.503Z,98822.84
2022-08-11T22:06:15.093Z,98820.13
2022-08-11T22:09:21.659Z,98827.75
2022-08-11T22:12:29.253Z,98827.75
2022-08-11T22:15:50.659Z,98822.41
2022-08-11T22:18:56.507Z,98831.81
2022-08-11T22:22:06.761Z,98824.47
2022-08-11T22:25:16.299Z,98826.00
2022-08-11T22:28:24.541Z,98823.97
2022-08-11T22:31:32.904Z,98821.69
2022-08-11T22:34:52.866Z,98817.63
2022-08-11T22:38:01.037Z,98816.41
2022-08-11T22:41:06.976Z,98808.78
2022-08-11T22:44:12.650Z,98806.53
2022-08-11T22:47:21.843Z,98814.13
2022-08-11T22:50:30.973Z,98813.63
2022-08-11T22:53:54.936Z,98809.59
2022-08-11T22:57:04.031Z,98806.88
2022-08-11T23:00:10.912Z,98810.16
2022-08-11T23:03:36.888Z,98794.69
2022-08-11T23:06:45.091Z,98795.44
2022-08-11T23:09:51.170Z,98800.03
2022-08-11T23:12:57.296Z,98797.50
2022-08-11T23:16:04.216Z,98780.78
2022-08-11T23:19:12.458Z,98787.88
2022-08-11T23:22:20.715Z,98781.03
2022-08-11T23:25:26.922Z,98776.47
2022-08-11T23:28:33.723Z,98780.50
2022-08-11T23:31:50.846Z,98778.47
2022-08-11T23:35:39.318Z,98774.97
2022-08-11T23:38:28.564Z,98773.22
2022-08-11T23:41:35.042Z,98774.97
2022-08-11T23:44:41.062Z,98777.47
2022-08-11T23:47:50.767Z,98765.28
2022-08-11T23:50:58.377Z,98762.56
2022-08-11T23:54:07.770Z,98761.81
2022-08-11T23:57:14.557Z,98762.56
